Terminal Aerodrome Forecast
Issued by NWS

Home | Current Version | Previous Version | Text Only | Print | Product List | Glossary On
Versions: 1 2 3 4 5 6 7 8 9 10 11 12 13 14 15 16 17 18 19
485
FTUS43 KBIS 272325
TAFMOT
TAF
KMOT 272325Z 2800/2824 31012G20KT P6SM SCT070
     FM280200 31006KT P6SM SCT250
     FM281200 27014KT P6SM FEW250
     FM281600 29019G28KT P6SM SCT060
     FM281800 30023G32KT P6SM BKN060=

USA.gov is the U.S. government's official web portal to all federal, state and local government web resources and services.